sensor_id;sensor_type;location;lat;lon;timestamp;pressure;altitude;pressure_sealevel;temperature;humidity
27864;BME280;15980;51.092;13.916;2022-09-09T00:01:02;98301.22;;;13.88;88.64
27864;BME280;15980;51.092;13.916;2022-09-09T00:06:17;98302.63;;;14.04;88.22
27864;BME280;15980;51.092;13.916;2022-09-09T00:11:28;98314.50;;;14.08;87.58
27864;BME280;15980;51.092;13.916;2022-09-09T00:16:35;98299.25;;;14.18;87.12
27864;BME280;15980;51.092;13.916;2022-09-09T00:21:46;98302.91;;;14.26;86.43
27864;BME280;15980;51.092;13.916;2022-09-09T00:26:56;98305.72;;;14.29;85.98
27864;BME280;15980;51.092;13.916;2022-09-09T00:32:11;98302.28;;;14.36;85.73
27864;BME280;15980;51.092;13.916;2022-09-09T00:37:15;98309.00;;;14.38;85.16
27864;BME280;15980;51.092;13.916;2022-09-09T00:42:23;98301.94;;;14.41;84.66
27864;BME280;15980;51.092;13.916;2022-09-09T00:47:44;98308.00;;;14.50;84.23
27864;BME280;15980;51.092;13.916;2022-09-09T00:52:55;98302.56;;;14.57;83.34
27864;BME280;15980;51.092;13.916;2022-09-09T00:58:01;98310.81;;;14.54;82.91
27864;BME280;15980;51.092;13.916;2022-09-09T01:03:32;98314.66;;;14.45;82.87
27864;BME280;15980;51.092;13.916;2022-09-09T01:08:43;98310.44;;;14.29;83.31
27864;BME280;15980;51.092;13.916;2022-09-09T01:13:56;98323.69;;;14.16;83.91
27864;BME280;15980;51.092;13.916;2022-09-09T01:19:02;98319.56;;;14.03;84.09
27864;BME280;15980;51.092;13.916;2022-09-09T01:24:21;98320.63;;;13.95;84.77
27864;BME280;15980;51.092;13.916;2022-09-09T01:29:25;98318.06;;;13.82;85.05
27864;BME280;15980;51.092;13.916;2022-09-09T01:34:31;98320.22;;;13.70;85.48
27864;BME280;15980;51.092;13.916;2022-09-09T01:39:38;98304.31;;;13.60;86.04
27864;BME280;15980;51.092;13.916;2022-09-09T01:44:42;98299.44;;;13.49;86.29
27864;BME280;15980;51.092;13.916;2022-09-09T01:49:45;98305.59;;;13.43;87.04
27864;BME280;15980;51.092;13.916;2022-09-09T01:54:48;98305.50;;;13.36;87.34
27864;BME280;15980;51.092;13.916;2022-09-09T02:00:02;98306.47;;;13.24;87.59
27864;BME280;15980;51.092;13.916;2022-09-09T02:05:16;98294.81;;;13.11;87.97
27864;BME280;15980;51.092;13.916;2022-09-09T02:10:22;98290.03;;;13.08;88.03
27864;BME280;15980;51.092;13.916;2022-09-09T02:15:32;98295.50;;;13.05;88.01
27864;BME280;15980;51.092;13.916;2022-09-09T02:20:37;98304.03;;;13.00;88.05
27864;BME280;15980;51.092;13.916;2022-09-09T02:25:41;98305.50;;;12.94;88.32
27864;BME280;15980;51.092;13.916;2022-09-09T02:30:49;98302.19;;;12.84;89.55
27864;BME280;15980;51.092;13.916;2022-09-09T02:35:58;98300.31;;;12.69;89.78
27864;BME280;15980;51.092;13.916;2022-09-09T02:41:04;98306.06;;;12.61;89.70
27864;BME280;15980;51.092;13.916;2022-09-09T02:46:24;98302.88;;;12.58;90.10
27864;BME280;15980;51.092;13.916;2022-09-09T02:51:35;98307.78;;;12.49;90.31
27864;BME280;15980;51.092;13.916;2022-09-09T02:56:46;98293.16;;;12.45;90.40
27864;BME280;15980;51.092;13.916;2022-09-09T03:01:53;98304.88;;;12.42;90.71
27864;BME280;15980;51.092;13.916;2022-09-09T03:06:56;98306.75;;;12.38;90.72
27864;BME280;15980;51.092;13.916;2022-09-09T03:11:59;98309.09;;;12.36;90.98
27864;BME280;15980;51.092;13.916;2022-09-09T03:17:03;98318.41;;;12.32;91.06
27864;BME280;15980;51.092;13.916;2022-09-09T03:22:06;98312.84;;;12.28;91.26
27864;BME280;15980;51.092;13.916;2022-09-09T03:27:09;98309.94;;;12.21;91.41
27864;BME280;15980;51.092;13.916;2022-09-09T03:32:13;98316.16;;;12.18;92.05
27864;BME280;15980;51.092;13.916;2022-09-09T03:37:16;98321.94;;;12.13;92.21
27864;BME280;15980;51.092;13.916;2022-09-09T03:42:20;98324.97;;;12.08;92.51
27864;BME280;15980;51.092;13.916;2022-09-09T03:47:24;98307.50;;;12.00;92.19
27864;BME280;15980;51.092;13.916;2022-09-09T03:52:27;98305.84;;;11.95;92.51
27864;BME280;15980;51.092;13.916;2022-09-09T03:57:31;98310.38;;;11.88;93.53
27864;BME280;15980;51.092;13.916;2022-09-09T04:02:37;98313.41;;;11.83;93.21
27864;BME280;15980;51.092;13.916;2022-09-09T04:07:40;98307.13;;;11.82;94.19
27864;BME280;15980;51.092;13.916;2022-09-09T04:12:43;98306.03;;;11.87;94.91
27864;BME280;15980;51.092;13.916;2022-09-09T04:17:50;98314.44;;;11.94;94.98
27864;BME280;15980;51.092;13.916;2022-09-09T04:22:54;98310.34;;;12.04;95.18
27864;BME280;15980;51.092;13.916;2022-09-09T04:27:57;98311.22;;;12.08;94.39
27864;BME280;15980;51.092;13.916;2022-09-09T04:33:02;98321.13;;;12.12;94.07
27864;BME280;15980;51.092;13.916;2022-09-09T04:38:05;98321.94;;;12.13;94.04
27864;BME280;15980;51.092;13.916;2022-09-09T04:43:09;98322.09;;;12.20;94.08
27864;BME280;15980;51.092;13.916;2022-09-09T04:48:15;98315.53;;;12.44;95.47
27864;BME280;15980;51.092;13.916;2022-09-09T04:53:18;98309.75;;;12.68;95.13
27864;BME280;15980;51.092;13.916;2022-09-09T04:58:21;98318.53;;;12.97;94.71
27864;BME280;15980;51.092;13.916;2022-09-09T05:03:26;98322.50;;;13.18;93.90
27864;BME280;15980;51.092;13.916;2022-09-09T05:08:30;98323.25;;;13.38;92.93
27864;BME280;15980;51.092;13.916;2022-09-09T05:13:32;98318.03;;;13.56;92.32
27864;BME280;15980;51.092;13.916;2022-09-09T05:18:39;98319.13;;;13.74;91.76
27864;BME280;15980;51.092;13.916;2022-09-09T05:23:41;98332.94;;;14.01;91.59
27864;BME280;15980;51.092;13.916;2022-09-09T05:28:45;98330.22;;;14.31;90.36
27864;BME280;15980;51.092;13.916;2022-09-09T05:33:49;98334.16;;;14.60;88.63
27864;BME280;15980;51.092;13.916;2022-09-09T05:38:52;98331.69;;;14.85;87.15
27864;BME280;15980;51.092;13.916;2022-09-09T05:43:55;98334.75;;;15.13;85.30
27864;BME280;15980;51.092;13.916;2022-09-09T05:49:02;98348.44;;;15.39;84.25
27864;BME280;15980;51.092;13.916;2022-09-09T05:54:04;98340.44;;;15.64;82.99
27864;BME280;15980;51.092;13.916;2022-09-09T05:59:07;98346.91;;;15.86;82.01
27864;BME280;15980;51.092;13.916;2022-09-09T06:04:12;98347.56;;;16.20;80.61
27864;BME280;15980;51.092;13.916;2022-09-09T06:09:15;98352.34;;;16.30;78.72
27864;BME280;15980;51.092;13.916;2022-09-09T06:14:17;98352.59;;;16.66;79.07
27864;BME280;15980;51.092;13.916;2022-09-09T06:19:21;98362.25;;;17.08;77.66
27864;BME280;15980;51.092;13.916;2022-09-09T06:24:25;98361.94;;;17.41;76.16
27864;BME280;15980;51.092;13.916;2022-09-09T06:29:28;98358.38;;;17.66;75.13
27864;BME280;15980;51.092;13.916;2022-09-09T06:34:32;98359.59;;;17.72;74.38
27864;BME280;15980;51.092;13.916;2022-09-09T06:39:35;98363.19;;;17.79;73.99
27864;BME280;15980;51.092;13.916;2022-09-09T06:44:38;98350.50;;;17.78;74.39
27864;BME280;15980;51.092;13.916;2022-09-09T06:49:42;98357.22;;;17.74;74.97
27864;BME280;15980;51.092;13.916;2022-09-09T06:54:48;98355.59;;;17.66;75.63
27864;BME280;15980;51.092;13.916;2022-09-09T06:59:51;98357.19;;;17.52;75.34
27864;BME280;15980;51.092;13.916;2022-09-09T07:04:55;98353.25;;;17.68;75.69
27864;BME280;15980;51.092;13.916;2022-09-09T07:10:00;98355.25;;;17.74;75.72
27864;BME280;15980;51.092;13.916;2022-09-09T07:15:03;98346.94;;;17.88;76.25
27864;BME280;15980;51.092;13.916;2022-09-09T07:20:08;98360.41;;;17.97;76.43
27864;BME280;15980;51.092;13.916;2022-09-09T07:25:11;98357.59;;;18.11;74.28
27864;BME280;15980;51.092;13.916;2022-09-09T07:30:13;98356.75;;;18.50;73.46
27864;BME280;15980;51.092;13.916;2022-09-09T07:35:21;98355.84;;;18.89;71.98
27864;BME280;15980;51.092;13.916;2022-09-09T07:40:24;98358.84;;;19.26;71.45
27864;BME280;15980;51.092;13.916;2022-09-09T07:45:27;98366.22;;;19.61;69.73
27864;BME280;15980;51.092;13.916;2022-09-09T07:50:31;98366.66;;;20.04;68.92
27864;BME280;15980;51.092;13.916;2022-09-09T07:55:34;98375.13;;;20.35;67.21
27864;BME280;15980;51.092;13.916;2022-09-09T08:00:37;98374.38;;;20.31;67.75
27864;BME280;15980;51.092;13.916;2022-09-09T08:05:42;98379.91;;;20.34;68.23
27864;BME280;15980;51.092;13.916;2022-09-09T08:10:45;98369.47;;;20.49;67.93
27864;BME280;15980;51.092;13.916;2022-09-09T08:15:48;98371.41;;;20.52;67.12
27864;BME280;15980;51.092;13.916;2022-09-09T08:20:53;98360.94;;;20.63;66.52
27864;BME280;15980;51.092;13.916;2022-09-09T08:26:03;98369.84;;;20.85;64.70
27864;BME280;15980;51.092;13.916;2022-09-09T08:31:08;98377.19;;;21.02;63.62
27864;BME280;15980;51.092;13.916;2022-09-09T08:36:14;98378.53;;;21.21;62.33
27864;BME280;15980;51.092;13.916;2022-09-09T08:41:40;98390.09;;;21.54;63.60
27864;BME280;15980;51.092;13.916;2022-09-09T08:46:51;98391.72;;;21.78;62.23
27864;BME280;15980;51.092;13.916;2022-09-09T08:52:02;98391.81;;;21.98;62.41
27864;BME280;15980;51.092;13.916;2022-09-09T08:57:14;98397.25;;;22.55;60.07
27864;BME280;15980;51.092;13.916;2022-09-09T09:02:24;98398.38;;;22.81;59.49
27864;BME280;15980;51.092;13.916;2022-09-09T09:07:37;98387.41;;;23.10;58.98
27864;BME280;15980;51.092;13.916;2022-09-09T09:12:45;98386.13;;;23.31;58.57
27864;BME280;15980;51.092;13.916;2022-09-09T09:17:50;98392.88;;;23.34;56.85
27864;BME280;15980;51.092;13.916;2022-09-09T09:22:57;98394.81;;;23.37;56.99
27864;BME280;15980;51.092;13.916;2022-09-09T09:28:10;98393.94;;;23.40;57.11
27864;BME280;15980;51.092;13.916;2022-09-09T09:33:21;98403.22;;;22.77;56.94
27864;BME280;15980;51.092;13.916;2022-09-09T09:38:27;98419.56;;;22.12;59.55
27864;BME280;15980;51.092;13.916;2022-09-09T09:43:53;98437.78;;;20.64;67.43
27864;BME280;15980;51.092;13.916;2022-09-09T09:48:57;98439.91;;;19.28;75.73
27864;BME280;15980;51.092;13.916;2022-09-09T09:54:09;98437.84;;;19.54;76.51
27864;BME280;15980;51.092;13.916;2022-09-09T09:59:22;98444.16;;;20.17;74.85
27864;BME280;15980;51.092;13.916;2022-09-09T10:04:36;98439.66;;;20.75;72.25
27864;BME280;15980;51.092;13.916;2022-09-09T10:09:41;98421.03;;;21.02;72.78
27864;BME280;15980;51.092;13.916;2022-09-09T10:14:49;98407.47;;;21.04;74.10
27864;BME280;15980;51.092;13.916;2022-09-09T10:20:04;98401.84;;;21.08;74.34
27864;BME280;15980;51.092;13.916;2022-09-09T10:25:38;98400.47;;;20.89;74.30
27864;BME280;15980;51.092;13.916;2022-09-09T10:30:54;98398.06;;;20.91;74.03
27864;BME280;15980;51.092;13.916;2022-09-09T10:36:05;98392.22;;;20.78;75.54
27864;BME280;15980;51.092;13.916;2022-09-09T10:41:18;98384.28;;;20.77;76.23
27864;BME280;15980;51.092;13.916;2022-09-09T10:46:28;98391.50;;;20.70;75.97
27864;BME280;15980;51.092;13.916;2022-09-09T10:51:39;98380.06;;;20.61;75.46
27864;BME280;15980;51.092;13.916;2022-09-09T10:56:52;98379.22;;;20.64;73.85
27864;BME280;15980;51.092;13.916;2022-09-09T11:02:02;98381.16;;;20.71;75.19
27864;BME280;15980;51.092;13.916;2022-09-09T11:07:12;98372.69;;;20.82;76.92
27864;BME280;15980;51.092;13.916;2022-09-09T11:12:22;98365.38;;;20.91;73.27
27864;BME280;15980;51.092;13.916;2022-09-09T11:17:28;98366.78;;;21.07;74.48
27864;BME280;15980;51.092;13.916;2022-09-09T11:22:37;98367.25;;;21.01;72.25
27864;BME280;15980;51.092;13.916;2022-09-09T11:27:56;98359.44;;;21.20;72.97
27864;BME280;15980;51.092;13.916;2022-09-09T11:33:23;98365.88;;;21.74;69.57
27864;BME280;15980;51.092;13.916;2022-09-09T11:38:34;98365.09;;;21.97;68.39
27864;BME280;15980;51.092;13.916;2022-09-09T11:43:44;98361.78;;;22.29;68.14
27864;BME280;15980;51.092;13.916;2022-09-09T11:48:58;98339.03;;;23.10;69.89
27864;BME280;15980;51.092;13.916;2022-09-09T11:54:21;98345.56;;;23.75;67.79
27864;BME280;15980;51.092;13.916;2022-09-09T11:59:28;98343.59;;;24.21;64.12
27864;BME280;15980;51.092;13.916;2022-09-09T12:04:35;98340.75;;;23.92;63.33
27864;BME280;15980;51.092;13.916;2022-09-09T12:09:45;98342.28;;;24.26;60.85
27864;BME280;15980;51.092;13.916;2022-09-09T12:15:26;98345.91;;;24.71;58.54
27864;BME280;15980;51.092;13.916;2022-09-09T12:20:34;98328.81;;;25.08;58.64
27864;BME280;15980;51.092;13.916;2022-09-09T12:26:02;98326.28;;;24.84;55.89
27864;BME280;15980;51.092;13.916;2022-09-09T12:31:12;98312.94;;;24.47;53.87
27864;BME280;15980;51.092;13.916;2022-09-09T12:36:21;98323.59;;;23.90;57.72
27864;BME280;15980;51.092;13.916;2022-09-09T12:41:26;98326.66;;;23.79;58.74
27864;BME280;15980;51.092;13.916;2022-09-09T12:46:36;98319.22;;;23.73;56.69
27864;BME280;15980;51.092;13.916;2022-09-09T12:51:40;98312.91;;;23.69;58.26
27864;BME280;15980;51.092;13.916;2022-09-09T12:56:46;98312.63;;;23.79;57.27
27864;BME280;15980;51.092;13.916;2022-09-09T13:01:56;98308.88;;;24.02;56.87
27864;BME280;15980;51.092;13.916;2022-09-09T13:07:06;98301.41;;;24.12;55.60
27864;BME280;15980;51.092;13.916;2022-09-09T13:12:14;98295.72;;;23.83;55.74
27864;BME280;15980;51.092;13.916;2022-09-09T13:17:21;98287.97;;;23.58;55.80
27864;BME280;15980;51.092;13.916;2022-09-09T13:22:29;98282.81;;;23.21;56.16
27864;BME280;15980;51.092;13.916;2022-09-09T13:27:36;98273.28;;;23.18;56.09
27864;BME280;15980;51.092;13.916;2022-09-09T13:32:42;98276.69;;;23.09;56.07
27864;BME280;15980;51.092;13.916;2022-09-09T13:37:45;98281.31;;;23.16;56.50
27864;BME280;15980;51.092;13.916;2022-09-09T13:42:51;98277.03;;;23.11;56.19
27864;BME280;15980;51.092;13.916;2022-09-09T13:48:08;98278.19;;;23.14;56.53
27864;BME280;15980;51.092;13.916;2022-09-09T13:53:11;98276.78;;;23.22;56.28
27864;BME280;15980;51.092;13.916;2022-09-09T13:58:16;98285.38;;;23.31;57.02
27864;BME280;15980;51.092;13.916;2022-09-09T14:03:21;98283.47;;;23.44;56.02
27864;BME280;15980;51.092;13.916;2022-09-09T14:08:25;98276.41;;;23.04;55.94
27864;BME280;15980;51.092;13.916;2022-09-09T14:13:29;98263.41;;;23.13;56.88
27864;BME280;15980;51.092;13.916;2022-09-09T14:18:33;98268.47;;;23.18;57.43
27864;BME280;15980;51.092;13.916;2022-09-09T14:23:36;98265.16;;;23.24;57.48
27864;BME280;15980;51.092;13.916;2022-09-09T14:28:40;98253.34;;;23.32;56.18
27864;BME280;15980;51.092;13.916;2022-09-09T14:33:55;98256.94;;;23.33;54.88
27864;BME280;15980;51.092;13.916;2022-09-09T14:38:58;98250.25;;;23.63;54.45
27864;BME280;15980;51.092;13.916;2022-09-09T14:44:01;98242.53;;;24.28;52.41
27864;BME280;15980;51.092;13.916;2022-09-09T14:49:05;98234.97;;;24.25;51.45
27864;BME280;15980;51.092;13.916;2022-09-09T14:54:08;98251.00;;;24.41;50.94
27864;BME280;15980;51.092;13.916;2022-09-09T14:59:13;98246.16;;;24.41;52.07
27864;BME280;15980;51.092;13.916;2022-09-09T15:04:17;98242.78;;;24.34;51.52
27864;BME280;15980;51.092;13.916;2022-09-09T15:09:20;98251.84;;;24.09;51.63
27864;BME280;15980;51.092;13.916;2022-09-09T15:14:22;98236.66;;;23.77;52.30
27864;BME280;15980;51.092;13.916;2022-09-09T15:19:31;98253.91;;;23.76;51.96
27864;BME280;15980;51.092;13.916;2022-09-09T15:24:34;98263.63;;;23.88;52.37
27864;BME280;15980;51.092;13.916;2022-09-09T15:29:37;98265.78;;;23.80;55.99
27864;BME280;15980;51.092;13.916;2022-09-09T15:34:42;98263.00;;;23.47;59.89
27864;BME280;15980;51.092;13.916;2022-09-09T15:39:45;98249.66;;;23.19;61.96
27864;BME280;15980;51.092;13.916;2022-09-09T15:44:47;98256.94;;;22.80;63.92
27864;BME280;15980;51.092;13.916;2022-09-09T15:49:52;98257.50;;;22.52;60.76
27864;BME280;15980;51.092;13.916;2022-09-09T15:54:54;98245.75;;;22.21;60.05
27864;BME280;15980;51.092;13.916;2022-09-09T15:59:57;98243.63;;;22.05;59.29
27864;BME280;15980;51.092;13.916;2022-09-09T16:05:02;98252.69;;;21.89;60.27
27864;BME280;15980;51.092;13.916;2022-09-09T16:10:06;98248.31;;;21.88;60.83
27864;BME280;15980;51.092;13.916;2022-09-09T16:15:09;98241.88;;;21.91;61.33
27864;BME280;15980;51.092;13.916;2022-09-09T16:20:14;98250.63;;;21.93;62.06
27864;BME280;15980;51.092;13.916;2022-09-09T16:25:16;98239.94;;;21.88;62.26
27864;BME280;15980;51.092;13.916;2022-09-09T16:30:20;98246.50;;;21.78;62.68
27864;BME280;15980;51.092;13.916;2022-09-09T16:35:24;98248.81;;;21.60;63.31
27864;BME280;15980;51.092;13.916;2022-09-09T16:40:27;98259.66;;;21.31;63.75
27864;BME280;15980;51.092;13.916;2022-09-09T16:45:30;98264.88;;;20.98;64.25
27864;BME280;15980;51.092;13.916;2022-09-09T16:50:35;98264.31;;;20.80;64.17
27864;BME280;15980;51.092;13.916;2022-09-09T16:55:39;98276.41;;;20.70;64.72
27864;BME280;15980;51.092;13.916;2022-09-09T17:00:42;98281.38;;;20.55;66.33
27864;BME280;15980;51.092;13.916;2022-09-09T17:05:46;98282.38;;;20.38;67.62
27864;BME280;15980;51.092;13.916;2022-09-09T17:10:49;98280.56;;;20.21;68.21
27864;BME280;15980;51.092;13.916;2022-09-09T17:15:52;98284.28;;;20.07;68.41
27864;BME280;15980;51.092;13.916;2022-09-09T17:21:02;98280.03;;;19.92;68.75
27864;BME280;15980;51.092;13.916;2022-09-09T17:26:07;98299.75;;;19.70;69.29
27864;BME280;15980;51.092;13.916;2022-09-09T17:31:13;98302.66;;;19.49;70.32
27864;BME280;15980;51.092;13.916;2022-09-09T17:36:19;98296.09;;;19.22;70.96
27864;BME280;15980;51.092;13.916;2022-09-09T17:41:25;98300.66;;;18.87;72.50
27864;BME280;15980;51.092;13.916;2022-09-09T17:46:30;98302.78;;;18.51;73.93
27864;BME280;15980;51.092;13.916;2022-09-09T17:51:36;98300.50;;;18.21;75.02
27864;BME280;15980;51.092;13.916;2022-09-09T17:56:40;98312.44;;;17.97;76.52
27864;BME280;15980;51.092;13.916;2022-09-09T18:01:44;98315.59;;;17.77;78.03
27864;BME280;15980;51.092;13.916;2022-09-09T18:06:50;98334.59;;;17.57;79.16
27864;BME280;15980;51.092;13.916;2022-09-09T18:11:56;98348.06;;;17.41;80.53
27864;BME280;15980;51.092;13.916;2022-09-09T18:17:00;98354.75;;;17.33;80.59
27864;BME280;15980;51.092;13.916;2022-09-09T18:22:05;98354.75;;;17.22;81.03
27864;BME280;15980;51.092;13.916;2022-09-09T18:27:08;98348.41;;;17.15;81.15
27864;BME280;15980;51.092;13.916;2022-09-09T18:32:11;98358.28;;;17.09;80.97
27864;BME280;15980;51.092;13.916;2022-09-09T18:37:16;98367.00;;;17.11;81.31
27864;BME280;15980;51.092;13.916;2022-09-09T18:42:19;98368.59;;;17.12;80.76
27864;BME280;15980;51.092;13.916;2022-09-09T18:47:22;98360.66;;;17.07;81.57
27864;BME280;15980;51.092;13.916;2022-09-09T18:52:27;98365.00;;;17.01;81.55
27864;BME280;15980;51.092;13.916;2022-09-09T18:57:29;98355.09;;;16.96;81.15
27864;BME280;15980;51.092;13.916;2022-09-09T19:02:34;98367.34;;;16.91;80.79
27864;BME280;15980;51.092;13.916;2022-09-09T19:07:40;98370.06;;;16.88;81.19
27864;BME280;15980;51.092;13.916;2022-09-09T19:12:44;98368.88;;;16.85;81.29
27864;BME280;15980;51.092;13.916;2022-09-09T19:17:47;98372.44;;;16.82;80.69
27864;BME280;15980;51.092;13.916;2022-09-09T19:22:52;98368.06;;;16.78;80.59
27864;BME280;15980;51.092;13.916;2022-09-09T19:27:55;98372.38;;;16.68;80.45
27864;BME280;15980;51.092;13.916;2022-09-09T19:32:58;98366.78;;;16.61;80.69
27864;BME280;15980;51.092;13.916;2022-09-09T19:38:02;98379.81;;;16.57;81.32
27864;BME280;15980;51.092;13.916;2022-09-09T19:43:05;98377.00;;;16.50;81.79
27864;BME280;15980;51.092;13.916;2022-09-09T19:48:08;98375.38;;;16.45;81.99
27864;BME280;15980;51.092;13.916;2022-09-09T19:53:12;98373.38;;;16.42;82.41
27864;BME280;15980;51.092;13.916;2022-09-09T19:58:15;98381.25;;;16.37;83.23
27864;BME280;15980;51.092;13.916;2022-09-09T20:03:18;98383.25;;;16.36;84.40
27864;BME280;15980;51.092;13.916;2022-09-09T20:08:23;98384.84;;;16.41;85.12
27864;BME280;15980;51.092;13.916;2022-09-09T20:13:28;98388.03;;;16.46;85.10
27864;BME280;15980;51.092;13.916;2022-09-09T20:18:32;98398.78;;;16.51;84.65
27864;BME280;15980;51.092;13.916;2022-09-09T20:23:37;98396.00;;;16.51;85.02
27864;BME280;15980;51.092;13.916;2022-09-09T20:28:41;98387.31;;;16.53;84.68
27864;BME280;15980;51.092;13.916;2022-09-09T20:33:44;98395.16;;;16.47;84.76
27864;BME280;15980;51.092;13.916;2022-09-09T20:38:50;98391.97;;;16.42;84.85
27864;BME280;15980;51.092;13.916;2022-09-09T20:43:55;98385.59;;;16.34;84.83
27864;BME280;15980;51.092;13.916;2022-09-09T20:48:58;98395.06;;;16.29;85.36
27864;BME280;15980;51.092;13.916;2022-09-09T20:54:06;98398.25;;;16.31;85.82
27864;BME280;15980;51.092;13.916;2022-09-09T20:59:11;98403.81;;;16.35;85.79
27864;BME280;15980;51.092;13.916;2022-09-09T21:04:16;98405.41;;;16.40;85.88
27864;BME280;15980;51.092;13.916;2022-09-09T21:09:21;98410.19;;;16.43;86.16
27864;BME280;15980;51.092;13.916;2022-09-09T21:14:24;98412.16;;;16.46;86.15
27864;BME280;15980;51.092;13.916;2022-09-09T21:19:28;98412.94;;;16.43;87.19
27864;BME280;15980;51.092;13.916;2022-09-09T21:24:32;98412.22;;;16.49;86.95
27864;BME280;15980;51.092;13.916;2022-09-09T21:29:34;98400.38;;;16.52;86.60
27864;BME280;15980;51.092;13.916;2022-09-09T21:34:37;98411.06;;;16.54;86.17
27864;BME280;15980;51.092;13.916;2022-09-09T21:39:42;98407.09;;;16.55;85.99
27864;BME280;15980;51.092;13.916;2022-09-09T21:44:44;98413.03;;;16.53;85.62
27864;BME280;15980;51.092;13.916;2022-09-09T21:49:47;98405.50;;;16.50;85.55
27864;BME280;15980;51.092;13.916;2022-09-09T21:54:51;98390.00;;;16.46;84.99
27864;BME280;15980;51.092;13.916;2022-09-09T21:59:54;98402.25;;;16.41;84.78
27864;BME280;15980;51.092;13.916;2022-09-09T22:04:56;98397.88;;;16.37;84.26
27864;BME280;15980;51.092;13.916;2022-09-09T22:10:00;98389.53;;;16.29;83.81
27864;BME280;15980;51.092;13.916;2022-09-09T22:15:04;98395.75;;;16.12;83.33
27864;BME280;15980;51.092;13.916;2022-09-09T22:20:08;98396.78;;;15.97;83.40
27864;BME280;15980;51.092;13.916;2022-09-09T22:25:14;98397.06;;;15.81;83.52
27864;BME280;15980;51.092;13.916;2022-09-09T22:30:17;98389.81;;;15.66;84.08
27864;BME280;15980;51.092;13.916;2022-09-09T22:35:20;98388.84;;;15.51;84.60
27864;BME280;15980;51.092;13.916;2022-09-09T22:40:24;98385.94;;;15.37;84.64
27864;BME280;15980;51.092;13.916;2022-09-09T22:45:26;98379.16;;;15.27;84.85
27864;BME280;15980;51.092;13.916;2022-09-09T22:50:32;98376.31;;;15.20;85.21
27864;BME280;15980;51.092;13.916;2022-09-09T22:55:40;98378.97;;;15.13;85.60
27864;BME280;15980;51.092;13.916;2022-09-09T23:00:43;98376.53;;;15.08;85.73
27864;BME280;15980;51.092;13.916;2022-09-09T23:05:52;98365.78;;;14.99;86.04
27864;BME280;15980;51.092;13.916;2022-09-09T23:10:56;98369.63;;;14.88;85.96
27864;BME280;15980;51.092;13.916;2022-09-09T23:16:07;98364.38;;;14.79;85.77
27864;BME280;15980;51.092;13.916;2022-09-09T23:21:12;98363.38;;;14.64;85.33
27864;BME280;15980;51.092;13.916;2022-09-09T23:26:16;98357.31;;;14.52;85.67
27864;BME280;15980;51.092;13.916;2022-09-09T23:31:21;98367.03;;;14.42;85.88
27864;BME280;15980;51.092;13.916;2022-09-09T23:36:27;98371.22;;;14.32;86.02
27864;BME280;15980;51.092;13.916;2022-09-09T23:41:33;98371.47;;;14.24;86.13
27864;BME280;15980;51.092;13.916;2022-09-09T23:46:36;98376.91;;;14.17;85.90
27864;BME280;15980;51.092;13.916;2022-09-09T23:51:38;98373.25;;;14.09;86.14
27864;BME280;15980;51.092;13.916;2022-09-09T23:56:42;98382.16;;;13.99;86.55
